Time;durP1;ratioP1;P1;durP2;ratioP2;P2;SDS_P1;SDS_P2;PMS_P1;PMS_P2;Temp;Humidity;BMP_temperature;BMP_pressure;BME280_temperature;BME280_humidity;BME280_pressure;Samples;Min_cycle;Max_cycle;Signal;HPM_P1;HPM_P2
2023/11/23 00:04:43;;;;;;;35.10;18.70;;;;;;;-3.21;81.96;100400.83;220216;1256;140356;-70
2023/11/23 00:09:47;;;;;;;35.70;16.70;;;;;;;-3.18;81.98;100399.87;220255;1256;140726;-69
2023/11/23 00:14:52;;;;;;;28.50;17.40;;;;;;;-3.16;81.95;100397.95;220410;1256;140716;-71
2023/11/23 00:19:56;;;;;;;36.20;17.50;;;;;;;-3.11;82.17;100386.04;220239;1257;142062;-71
2023/11/23 00:25:00;;;;;;;23.20;15.60;;;;;;;-3.08;82.25;100357.58;220310;1256;141185;-70
2023/11/23 00:30:04;;;;;;;30.30;14.90;;;;;;;-3.03;82.34;100337.23;220440;1256;140736;-71
2023/11/23 00:35:08;;;;;;;32.20;17.10;;;;;;;-3.02;82.27;100324.28;220104;1256;140776;-70
2023/11/23 00:40:15;;;;;;;34.90;18.40;;;;;;;-3.00;82.37;100310.69;220106;1257;140182;-70
2023/11/23 00:45:19;;;;;;;;;;;;;;;-2.96;82.53;100296.41;220276;1257;141128;-69
2023/11/23 00:50:23;;;;;;;34.20;18.30;;;;;;;-2.93;82.52;100287.82;220407;1258;126890;-69
2023/11/23 00:55:28;;;;;;;28.60;14.40;;;;;;;-2.88;82.72;100282.73;220118;1257;140743;-69
2023/11/23 01:00:32;;;;;;;28.60;15.00;;;;;;;-2.83;82.94;100285.38;220068;1257;140734;-70
2023/11/23 01:05:37;;;;;;;33.10;16.90;;;;;;;-2.79;82.78;100280.11;218017;1256;140678;-71
2023/11/23 01:10:43;;;;;;;25.80;13.70;;;;;;;-2.72;82.93;100267.15;217579;1257;140363;-67
2023/11/23 07:31:12;;;;;;;20.60;9.10;;;;;;;0.15;87.76;99456.27;214452;1301;636437;-67
2023/11/23 07:48:37;;;;;;;19.80;10.90;;;;;;;0.21;88.37;99420.45;215159;1275;984590;-67
2023/11/23 07:53:51;;;;;;;46.60;20.70;;;;;;;0.23;88.58;99406.86;217497;1275;139859;-68
2023/11/23 07:58:56;;;;;;;40.70;18.90;;;;;;;0.28;88.59;99400.41;217339;1275;139989;-69
2023/11/23 08:04:03;;;;;;;21.60;13.20;;;;;;;0.34;89.00;99380.67;217042;1276;141391;-71
2023/11/23 08:09:10;;;;;;;19.60;11.10;;;;;;;0.41;89.46;99368.95;215691;1276;139511;-67
2023/11/23 08:14:16;;;;;;;16.40;10.10;;;;;;;0.47;89.64;99353.59;215423;1276;140427;-68
2023/11/23 08:19:25;;;;;;;21.60;14.50;;;;;;;0.51;89.78;99352.08;215728;1276;140208;-67
2023/11/23 08:24:32;;;;;;;20.70;11.30;;;;;;;0.54;89.88;99356.84;214776;1275;139352;-67
2023/11/23 08:29:36;;;;;;;19.40;10.60;;;;;;;0.57;90.53;99344.39;215572;1276;140000;-66
2023/11/23 08:34:41;;;;;;;23.60;11.70;;;;;;;0.60;90.48;99346.88;215732;1276;232438;-67
2023/11/23 08:39:49;;;;;;;19.60;10.70;;;;;;;0.64;90.56;99338.96;215842;1276;139413;-67
2023/11/23 08:44:58;;;;;;;18.80;10.30;;;;;;;0.69;91.11;99340.17;214867;1277;138994;-67
2023/11/23 08:50:09;;;;;;;19.80;11.00;;;;;;;0.74;91.11;99325.14;215913;1279;139418;-67
2023/11/23 08:55:15;;;;;;;22.90;11.90;;;;;;;0.80;91.15;99315.84;214745;1279;139700;-66
2023/11/23 09:00:28;;;;;;;19.00;10.60;;;;;;;0.88;91.76;99305.70;214586;1281;139012;-66
2023/11/23 09:05:34;;;;;;;18.00;9.80;;;;;;;0.95;91.49;99289.52;214861;1277;139435;-68
2023/11/23 09:10:38;;;;;;;20.70;11.20;;;;;;;1.02;91.74;99279.92;214612;1281;138939;-68
2023/11/23 09:15:43;;;;;;;16.70;11.60;;;;;;;1.08;91.86;99275.35;216573;1276;139981;-71
2023/11/23 09:20:50;;;;;;;16.20;9.50;;;;;;;1.17;92.43;99255.23;217269;1276;139017;-71
2023/11/23 09:25:55;;;;;;;21.60;10.50;;;;;;;1.27;91.94;99249.33;217368;1276;139218;-69
2023/11/23 09:31:01;;;;;;;17.00;10.10;;;;;;;1.37;92.40;99238.05;216517;1276;139363;-68
2023/11/23 09:36:06;;;;;;;17.60;9.60;;;;;;;1.45;92.23;99224.46;217731;1268;139302;-67
2023/11/23 09:41:18;;;;;;;12.00;8.30;;;;;;;1.48;92.34;99198.31;219173;1268;142382;-66
2023/11/23 09:46:23;;;;;;;12.80;8.60;;;;;;;1.55;92.80;99193.27;217138;1271;139569;-66
2023/11/23 09:51:27;;;;;;;16.40;9.60;;;;;;;1.62;92.62;99186.30;216479;1268;139149;-69
2023/11/23 09:56:32;;;;;;;16.40;10.80;;;;;;;1.67;92.85;99175.79;217405;1268;139900;-71
2023/11/23 10:01:43;;;;;;;14.80;8.70;;;;;;;1.71;93.15;99172.17;216398;1269;139286;-70
2023/11/23 10:06:48;;;;;;;15.70;8.90;;;;;;;1.77;93.31;99148.86;217207;1269;140323;-69
2023/11/23 10:11:56;;;;;;;16.00;8.70;;;;;;;1.85;93.69;99134.66;217386;1268;139809;-69
2023/11/23 10:17:00;;;;;;;13.20;9.90;;;;;;;1.94;94.00;99114.77;216283;1271;140003;-69
2023/11/23 10:22:05;;;;;;;15.60;8.70;;;;;;;2.01;94.45;99102.41;216662;1269;139103;-71
2023/11/23 10:27:10;;;;;;;9.80;8.10;;;;;;;2.08;94.25;99101.73;216384;1269;140578;-68
2023/11/23 10:32:16;;;;;;;16.70;8.30;;;;;;;2.15;94.35;99111.05;216617;1269;139544;-66
2023/11/23 10:37:23;;;;;;;14.60;8.00;;;;;;;2.20;94.42;99104.71;216240;1269;139071;-67
2023/11/23 10:42:32;;;;;;;14.90;9.00;;;;;;;2.24;94.29;99106.47;217874;1268;139346;-70
2023/11/23 10:47:42;;;;;;;9.60;7.20;;;;;;;2.30;94.65;99089.98;216893;1268;140138;-71
2023/11/23 10:52:47;;;;;;;16.40;10.00;;;;;;;2.35;94.47;99081.68;217517;1268;140067;-71
2023/11/23 10:58:01;;;;;;;16.60;10.10;;;;;;;2.41;94.63;99072.39;217502;1268;140357;-71
2023/11/23 11:03:10;;;;;;;13.70;8.80;;;;;;;2.49;94.55;99071.74;216317;1269;141503;-72
2023/11/23 11:08:20;;;;;;;14.80;10.10;;;;;;;2.55;94.75;99066.66;218121;1268;139646;-69
2023/11/23 11:13:26;;;;;;;14.10;8.20;;;;;;;2.61;94.61;99063.81;216426;1269;140327;-69
2023/11/23 11:18:33;;;;;;;;;;;;;;;2.66;94.68;99062.89;219176;1267;139640;-69
2023/11/23 11:23:44;;;;;;;17.20;9.90;;;;;;;2.71;94.85;99054.56;219485;1268;127615;-69
2023/11/23 11:28:57;;;;;;;18.10;11.50;;;;;;;2.79;94.67;99040.95;218291;1268;139487;-71
2023/11/23 11:34:25;;;;;;;12.20;6.70;;;;;;;2.88;94.70;99026.62;216718;1269;140184;-72
2023/11/23 11:39:36;;;;;;;18.50;9.70;;;;;;;2.97;94.67;99013.30;217640;1271;140079;-70
2023/11/23 11:44:48;;;;;;;14.30;8.40;;;;;;;3.01;94.81;99004.80;216935;1268;140420;-70
2023/11/23 11:49:53;;;;;;;19.40;9.10;;;;;;;3.04;94.98;98989.00;217919;1268;140162;-70
2023/11/23 11:54:58;;;;;;;12.40;8.20;;;;;;;3.10;94.98;98974.14;217817;1268;139619;-70
2023/11/23 12:00:07;;;;;;;16.20;8.00;;;;;;;3.15;95.08;98952.76;216342;1268;140114;-69
2023/11/23 12:05:12;;;;;;;13.80;8.70;;;;;;;3.20;95.27;98935.33;217199;1265;231506;-67
2023/11/23 12:10:19;;;;;;;10.10;6.80;;;;;;;3.26;95.48;98939.37;217531;1265;140720;-68
2023/11/23 12:15:23;;;;;;;12.70;9.40;;;;;;;3.32;95.52;98932.42;216542;1270;150133;-68
2023/11/23 12:20:36;;;;;;;11.30;8.10;;;;;;;3.37;95.90;98908.64;216641;1266;139514;-69
2023/11/23 12:25:40;;;;;;;12.60;7.80;;;;;;;3.42;96.01;98896.05;216450;1265;139391;-68
2023/11/23 12:30:45;;;;;;;10.40;7.50;;;;;;;3.47;96.18;98890.29;216795;1266;139382;-69
2023/11/23 12:35:51;;;;;;;12.10;8.90;;;;;;;3.51;96.14;98880.34;217651;1265;139152;-67
2023/11/23 12:40:55;;;;;;;13.80;9.80;;;;;;;3.54;96.28;98865.09;217553;1265;139553;-70
2023/11/23 12:45:59;;;;;;;11.20;7.80;;;;;;;3.59;96.20;98859.64;218215;1265;139140;-70
2023/11/23 12:51:04;;;;;;;11.40;7.60;;;;;;;3.65;96.29;98861.96;216467;1266;139031;-71
2023/11/23 12:56:10;;;;;;;9.30;7.10;;;;;;;3.69;96.44;98854.29;218117;1265;141496;-74
2023/11/23 13:01:15;;;;;;;14.50;8.20;;;;;;;3.73;96.43;98841.70;216477;1266;139836;-74
2023/11/23 13:06:19;;;;;;;10.30;7.40;;;;;;;3.76;96.57;98837.02;217620;1265;226982;-72
2023/11/23 13:11:23;;;;;;;12.50;7.50;;;;;;;3.79;96.88;98829.94;218231;1266;140291;-72
2023/11/23 13:16:28;;;;;;;9.10;6.40;;;;;;;3.83;96.92;98829.44;218026;1265;139216;-73
2023/11/23 13:21:33;;;;;;;9.80;6.90;;;;;;;3.86;96.87;98804.55;219489;1265;141349;-73
2023/11/23 13:26:38;;;;;;;11.20;7.60;;;;;;;3.91;96.99;98796.13;219593;1265;139407;-73
2023/11/23 13:31:43;;;;;;;10.50;6.70;;;;;;;3.98;97.18;98780.40;219271;1265;139238;-73
2023/11/23 13:36:48;;;;;;;13.90;7.40;;;;;;;4.03;97.24;98759.21;218655;1266;140073;-72
2023/11/23 13:41:52;;;;;;;7.40;6.30;;;;;;;4.09;97.30;98752.02;218993;1265;139696;-74
2023/11/23 13:46:58;;;;;;;9.90;6.20;;;;;;;4.15;97.43;98749.67;217202;1265;140064;-72
2023/11/23 13:52:02;;;;;;;11.10;7.60;;;;;;;4.19;97.44;98743.79;217487;1265;139407;-73
2023/11/23 13:57:07;;;;;;;9.00;7.40;;;;;;;4.22;97.68;98723.64;218000;1270;139902;-71
2023/11/23 14:02:12;;;;;;;9.40;7.00;;;;;;;4.26;97.81;98709.88;217241;1265;139243;-73
2023/11/23 14:07:17;;;;;;;11.50;7.60;;;;;;;4.29;98.14;98698.91;216922;1266;139182;-72
2023/11/23 14:12:22;;;;;;;9.10;6.90;;;;;;;4.32;98.28;98701.23;217668;1266;152905;-72
2023/11/23 14:17:27;;;;;;;9.10;6.70;;;;;;;4.35;98.50;98695.48;216581;1270;139775;-70
2023/11/23 14:22:34;;;;;;;6.40;5.50;;;;;;;4.39;98.66;98691.21;217364;1265;139089;-71
2023/11/23 14:27:39;;;;;;;;;;;;;;;4.41;99.04;98694.31;217120;1266;139411;-69
2023/11/23 14:32:46;;;;;;;9.10;7.20;;;;;;;4.42;99.18;98693.86;217074;1264;125380;-70
2023/11/23 14:37:51;;;;;;;8.70;5.80;;;;;;;4.44;98.96;98682.15;217832;1265;140970;-70
2023/11/23 14:42:56;;;;;;;7.30;5.90;;;;;;;4.45;99.07;98665.02;217094;1265;138902;-69
2023/11/23 14:48:03;;;;;;;8.70;6.70;;;;;;;4.46;98.90;98664.15;217510;1265;138827;-74
2023/11/23 14:53:08;;;;;;;11.10;6.40;;;;;;;4.46;98.99;98646.48;217740;1264;139786;-75
2023/11/23 14:58:13;;;;;;;13.90;7.40;;;;;;;4.45;99.10;98629.56;217356;1268;139328;-77
2023/11/23 15:03:19;;;;;;;12.80;8.80;;;;;;;4.45;99.05;98612.84;218976;1265;140253;-72
2023/11/23 15:08:24;;;;;;;8.10;7.00;;;;;;;4.46;99.42;98601.14;217303;1265;139425;-68
2023/11/23 15:13:28;;;;;;;9.20;7.40;;;;;;;4.49;99.30;98596.64;217065;1268;138946;-70
2023/11/23 15:18:42;;;;;;;11.40;6.40;;;;;;;4.53;99.30;98590.79;218773;1265;139150;-70
2023/11/23 15:23:48;;;;;;;7.30;6.50;;;;;;;4.56;99.45;98579.09;217368;1265;139513;-74
2023/11/23 15:28:53;;;;;;;8.10;5.90;;;;;;;4.57;99.45;98577.45;217918;1264;139003;-72
2023/11/23 15:33:57;;;;;;;8.50;6.80;;;;;;;4.60;99.81;98571.47;217156;1264;139725;-71
2023/11/23 15:39:06;;;;;;;6.50;5.70;;;;;;;4.62;99.87;98554.58;217552;1265;138752;-73
2023/11/23 15:44:11;;;;;;;8.90;5.90;;;;;;;4.65;99.89;98544.80;217322;1268;139101;-72
2023/11/23 15:49:17;;;;;;;7.40;6.50;;;;;;;4.65;99.76;98525.46;216818;1266;139051;-70
2023/11/23 15:54:24;;;;;;;8.70;5.80;;;;;;;4.66;99.92;98519.68;216905;1265;139729;-70
2023/11/23 15:59:30;;;;;;;11.70;7.30;;;;;;;4.65;99.74;98514.87;217434;1266;140621;-71
2023/11/23 16:04:35;;;;;;;7.60;6.50;;;;;;;4.63;99.78;98506.16;217559;1265;141555;-72
2023/11/23 16:09:41;;;;;;;15.20;6.20;;;;;;;4.62;99.70;98488.64;216732;1266;139418;-70
2023/11/23 16:14:47;;;;;;;10.60;6.80;;;;;;;4.59;99.65;98476.80;216847;1265;139719;-68
2023/11/23 16:19:52;;;;;;;6.00;4.80;;;;;;;4.56;99.74;98459.12;216582;1266;226324;-68
2023/11/23 16:24:57;;;;;;;7.60;5.20;;;;;;;4.54;99.52;98445.30;217228;1268;140373;-70
2023/11/23 16:30:03;;;;;;;8.50;5.80;;;;;;;4.51;99.68;98437.19;216701;1265;139156;-71
2023/11/23 16:35:10;;;;;;;9.70;6.20;;;;;;;4.48;99.78;98429.16;217640;1265;138845;-71
2023/11/23 16:40:16;;;;;;;13.10;7.70;;;;;;;4.45;99.88;98420.75;217596;1265;139677;-74
2023/11/23 16:45:21;;;;;;;7.20;6.30;;;;;;;4.44;99.90;98404.83;216673;1268;141594;-72
2023/11/23 16:50:29;;;;;;;22.90;14.80;;;;;;;4.42;99.75;98383.25;216813;1268;139990;-67
2023/11/23 16:55:37;;;;;;;15.90;11.60;;;;;;;4.41;99.94;98372.95;217263;1266;140674;-67
2023/11/23 17:00:43;;;;;;;9.10;8.00;;;;;;;4.40;99.88;98354.66;217130;1265;139802;-67
2023/11/23 17:05:53;;;;;;;7.60;5.90;;;;;;;4.42;99.97;98328.41;216743;1265;139248;-67
2023/11/23 17:11:01;;;;;;;6.60;6.00;;;;;;;4.44;99.94;98310.89;217592;1266;141158;-72
2023/11/23 17:16:08;;;;;;;8.00;7.20;;;;;;;4.45;99.94;98285.21;218475;1265;139580;-72
2023/11/23 17:21:12;;;;;;;8.50;7.60;;;;;;;4.47;100.00;98257.66;217901;1266;140075;-72
2023/11/23 17:26:19;;;;;;;12.40;8.80;;;;;;;4.48;99.98;98242.45;217600;1265;139243;-68
2023/11/23 17:31:32;;;;;;;9.60;7.50;;;;;;;4.51;100.00;98212.69;217769;1266;139778;-74
2023/11/23 17:36:37;;;;;;;7.90;6.80;;;;;;;4.53;100.00;98189.15;217036;1266;140346;-70
2023/11/23 17:41:45;;;;;;;8.40;7.10;;;;;;;4.56;100.00;98155.31;217932;1265;139276;-69
2023/11/23 17:46:50;;;;;;;7.40;6.20;;;;;;;4.59;100.00;98151.05;217725;1268;140363;-72
2023/11/23 17:51:55;;;;;;;7.50;6.20;;;;;;;4.62;100.00;98159.17;217736;1268;141608;-69
2023/11/23 17:57:01;;;;;;;12.70;8.80;;;;;;;4.68;100.00;98154.23;217666;1266;140068;-72
2023/11/23 18:02:08;;;;;;;8.80;7.50;;;;;;;4.72;100.00;98138.93;216799;1268;141941;-73
2023/11/23 18:07:14;;;;;;;7.20;6.40;;;;;;;4.73;100.00;98125.66;217121;1268;139392;-74
2023/11/23 18:12:22;;;;;;;8.80;7.20;;;;;;;4.76;100.00;98116.63;217123;1268;139962;-75
2023/11/23 18:17:32;;;;;;;8.30;7.10;;;;;;;4.81;100.00;98090.64;216818;1265;139245;-72
2023/11/23 18:22:49;;;;;;;8.80;7.20;;;;;;;4.88;100.00;98073.07;217270;1265;139159;-74
2023/11/23 18:28:00;;;;;;;9.40;6.20;;;;;;;4.96;100.00;98067.17;216688;1266;139966;-74
2023/11/23 18:33:06;;;;;;;9.20;7.70;;;;;;;5.05;100.00;98053.60;217269;1265;139591;-73
2023/11/23 18:38:13;;;;;;;9.40;7.10;;;;;;;5.14;100.00;98037.06;217089;1264;139712;-77
2023/11/23 18:43:19;;;;;;;8.40;6.60;;;;;;;5.24;100.00;98011.88;217542;1266;139442;-71
2023/11/23 18:48:24;;;;;;;12.40;8.70;;;;;;;5.30;100.00;97989.20;217994;1268;141365;-73
2023/11/23 18:53:30;;;;;;;10.50;8.90;;;;;;;5.35;100.00;97980.98;216933;1268;139798;-67
2023/11/23 18:58:36;;;;;;;10.20;8.30;;;;;;;5.41;100.00;97964.30;216546;1268;139464;-69
2023/11/23 19:03:41;;;;;;;10.10;7.90;;;;;;;5.41;100.00;97942.34;216689;1268;140520;-70
2023/11/23 19:08:48;;;;;;;9.50;8.40;;;;;;;5.41;100.00;97920.08;217500;1266;141396;-71
2023/11/23 19:13:53;;;;;;;12.10;8.90;;;;;;;5.40;100.00;97893.86;216821;1266;141202;-70
2023/11/23 19:19:02;;;;;;;11.00;8.90;;;;;;;5.43;100.00;97911.86;218363;1268;139386;-69
2023/11/23 19:24:09;;;;;;;8.70;6.90;;;;;;;5.45;100.00;97896.77;217272;1266;139952;-69
2023/11/23 19:29:14;;;;;;;8.60;7.70;;;;;;;5.49;100.00;97880.70;217753;1266;139885;-70
2023/11/23 19:34:20;;;;;;;9.70;6.60;;;;;;;5.57;100.00;97854.66;218652;1265;139579;-70
2023/11/23 19:39:26;;;;;;;12.80;8.50;;;;;;;5.66;100.00;97840.95;218176;1267;140607;-68
2023/11/23 19:44:31;;;;;;;11.90;6.20;;;;;;;5.76;100.00;97832.09;216404;1268;648919;-68
2023/11/23 19:49:37;;;;;;;7.20;6.50;;;;;;;5.86;100.00;97832.16;217812;1266;140361;-71
2023/11/23 19:54:44;;;;;;;8.50;6.90;;;;;;;5.97;100.00;97811.20;217514;1265;140039;-69
2023/11/23 19:59:49;;;;;;;6.70;5.90;;;;;;;6.14;100.00;97802.86;216656;1268;139494;-72
2023/11/23 20:04:52;;;;;;;5.90;4.40;;;;;;;6.29;100.00;97788.59;216962;1268;139253;-72
2023/11/23 20:09:59;;;;;;;5.80;4.50;;;;;;;6.39;100.00;97780.47;216479;1268;140488;-70
2023/11/23 20:15:04;;;;;;;5.90;5.30;;;;;;;6.47;100.00;97767.89;217261;1268;139264;-71
2023/11/23 20:20:10;;;;;;;6.20;5.20;;;;;;;6.56;100.00;97745.34;217182;1268;140199;-72
2023/11/23 20:25:17;;;;;;;7.80;5.40;;;;;;;6.62;100.00;97733.52;216840;1268;139729;-72
2023/11/23 20:30:21;;;;;;;6.80;5.70;;;;;;;6.69;100.00;97706.17;218043;1268;140116;-72
2023/11/23 20:35:27;;;;;;;5.80;4.80;;;;;;;6.75;100.00;97676.05;216948;1268;139938;-70
2023/11/23 20:40:31;;;;;;;5.20;4.40;;;;;;;6.79;100.00;97661.49;216952;1268;140874;-71
2023/11/23 20:45:35;;;;;;;9.50;6.20;;;;;;;6.79;100.00;97664.73;218032;1268;140508;-71
2023/11/23 20:50:39;;;;;;;9.20;6.00;;;;;;;6.79;100.00;97680.46;217721;1266;139950;-69
2023/11/23 20:55:46;;;;;;;10.10;7.60;;;;;;;6.78;100.00;97726.80;217340;1268;140203;-69
2023/11/23 21:00:51;;;;;;;4.20;3.20;;;;;;;6.78;100.00;97790.29;216877;1268;141021;-69
2023/11/23 21:05:57;;;;;;;7.00;1.40;;;;;;;6.64;99.83;97793.36;217362;1268;139801;-73
2023/11/23 21:11:01;;;;;;;0.70;0.70;;;;;;;6.41;99.48;97800.89;218050;1266;139329;-74
2023/11/23 21:16:06;;;;;;;1.00;1.00;;;;;;;6.23;99.41;97815.06;217232;1267;139757;-74
2023/11/23 21:21:10;;;;;;;0.40;0.40;;;;;;;6.11;99.32;97813.48;218286;1265;140267;-83
2023/11/23 21:26:14;;;;;;;0.80;0.50;;;;;;;5.99;99.10;97818.52;217034;1268;139751;-74
2023/11/23 21:31:18;;;;;;;0.30;0.30;;;;;;;5.86;98.97;97818.80;217724;1266;140606;-75
2023/11/23 21:36:22;;;;;;;0.60;0.60;;;;;;;5.75;98.46;97806.96;217910;1264;139710;-75
2023/11/23 21:41:25;;;;;;;1.30;0.80;;;;;;;5.65;98.37;97815.89;217721;1266;138826;-76
2023/11/23 21:46:29;;;;;;;3.00;0.70;;;;;;;5.56;98.22;97823.83;217278;1267;139569;-71
2023/11/23 21:51:33;;;;;;;0.50;0.50;;;;;;;5.48;98.40;97826.98;216671;1269;139698;-77
2023/11/23 21:56:38;;;;;;;1.40;1.00;;;;;;;5.39;98.50;97813.36;218339;1265;139876;-77
2023/11/23 22:01:44;;;;;;;1.00;0.60;;;;;;;5.35;98.35;97802.32;217270;1268;140419;-73
2023/11/23 22:06:48;;;;;;;0.90;0.80;;;;;;;5.30;98.26;97797.09;217153;1268;139147;-72
2023/11/23 22:11:54;;;;;;;4.00;0.80;;;;;;;5.22;98.10;97793.09;216980;1267;139152;-76
2023/11/23 22:16:59;;;;;;;0.40;0.40;;;;;;;5.17;98.30;97787.86;216932;1267;139227;-73
2023/11/23 22:22:05;;;;;;;6.50;1.30;;;;;;;5.13;98.24;97791.63;216790;1265;140118;-75
2023/11/23 22:27:10;;;;;;;0.70;0.50;;;;;;;5.07;98.00;97795.99;216910;1267;139880;-74
2023/11/23 22:32:16;;;;;;;0.90;0.40;;;;;;;5.03;97.88;97791.40;217217;1267;139225;-73
2023/11/23 22:37:20;;;;;;;0.50;0.50;;;;;;;4.95;97.43;97775.83;217454;1267;139533;-75
2023/11/23 22:42:25;;;;;;;0.30;0.30;;;;;;;4.88;97.59;97763.39;216934;1267;138931;-73
2023/11/23 22:47:29;;;;;;;2.60;0.40;;;;;;;4.84;97.44;97741.55;217451;1266;140059;-75
2023/11/23 22:52:35;;;;;;;2.40;0.40;;;;;;;4.80;97.56;97714.36;217408;1268;141002;-71
2023/11/23 22:57:40;;;;;;;0.70;0.40;;;;;;;4.79;97.55;97699.30;217575;1267;139717;-76
2023/11/23 23:02:45;;;;;;;0.90;0.50;;;;;;;4.81;97.16;97715.69;217696;1267;231049;-81
2023/11/23 23:07:51;;;;;;;0.20;0.20;;;;;;;4.82;97.17;97712.60;218047;1267;140593;-80
2023/11/23 23:12:56;;;;;;;0.50;0.50;;;;;;;4.83;96.98;97694.30;218396;1267;140640;-81
2023/11/23 23:18:01;;;;;;;0.70;0.40;;;;;;;4.84;97.07;97702.38;218902;1267;139303;-80
2023/11/23 23:23:06;;;;;;;0.70;0.50;;;;;;;4.84;96.51;97686.21;216575;1266;139192;-78
2023/11/23 23:28:12;;;;;;;4.30;0.70;;;;;;;4.82;96.57;97669.30;217087;1267;140290;-78
2023/11/23 23:33:32;;;;;;;1.30;0.50;;;;;;;4.78;96.19;97694.27;218501;1266;140488;-76
2023/11/23 23:38:38;;;;;;;0.30;0.30;;;;;;;4.75;96.30;97710.39;218419;1265;139755;-77
2023/11/23 23:43:45;;;;;;;0.80;0.40;;;;;;;4.76;95.86;97700.69;219413;1266;140384;-79
2023/11/23 23:48:50;;;;;;;0.80;0.70;;;;;;;4.76;95.93;97693.92;216623;1267;140106;-77
2023/11/23 23:53:55;;;;;;;0.50;0.50;;;;;;;4.74;96.11;97683.88;218284;1266;141208;-80
2023/11/23 23:58:58;;;;;;;2.20;0.80;;;;;;;4.73;95.80;97668.88;216611;1267;139490;-79
